createdAt,value
2022-10-17T00:02:17.475Z,3.80
2022-10-17T00:04:45.250Z,5.57
2022-10-17T00:07:13.018Z,5.07
2022-10-17T00:09:44.966Z,4.30
2022-10-17T00:12:12.669Z,3.23
2022-10-17T00:14:40.559Z,6.47
2022-10-17T00:17:08.294Z,4.70
2022-10-17T00:19:36.001Z,3.80
2022-10-17T00:22:03.722Z,4.27
2022-10-17T00:24:31.737Z,3.03
2022-10-17T00:27:00.838Z,3.10
2022-10-17T00:29:28.600Z,2.60
2022-10-17T00:31:56.906Z,2.50
2022-10-17T00:34:25.075Z,3.70
2022-10-17T00:36:53.225Z,3.30
2022-10-17T00:39:20.955Z,4.43
2022-10-17T00:41:48.710Z,2.90
2022-10-17T00:44:53.885Z,5.10
2022-10-17T00:47:24.082Z,4.43
2022-10-17T00:49:51.983Z,2.90
2022-10-17T00:52:23.159Z,3.73
2022-10-17T00:54:55.279Z,3.00
2022-10-17T00:57:23.273Z,4.20
2022-10-17T00:59:55.461Z,4.67
2022-10-17T01:02:24.697Z,4.13
2022-10-17T01:04:55.754Z,9.17
2022-10-17T01:07:24.129Z,6.07
2022-10-17T01:09:52.057Z,5.00
2022-10-17T01:12:24.003Z,4.07
2022-10-17T01:15:05.189Z,3.07
2022-10-17T01:17:45.270Z,4.33
2022-10-17T01:20:52.108Z,6.60
2022-10-17T01:23:48.732Z,6.40
2022-10-17T01:26:24.755Z,4.93
2022-10-17T01:29:14.167Z,5.67
2022-10-17T01:31:48.421Z,4.60
2022-10-17T01:34:20.795Z,8.20
2022-10-17T01:36:52.862Z,4.73
2022-10-17T01:39:31.832Z,5.07
2022-10-17T01:42:07.017Z,7.43
2022-10-17T01:44:40.274Z,4.10
2022-10-17T01:47:12.352Z,4.43
2022-10-17T01:49:43.388Z,6.77
2022-10-17T01:52:14.494Z,4.57
2022-10-17T01:54:46.962Z,2.40
2022-10-17T01:57:31.834Z,3.83
2022-10-17T02:00:00.221Z,4.60
2022-10-17T02:02:30.262Z,4.17
2022-10-17T02:04:58.784Z,3.50
2022-10-17T02:07:26.888Z,7.33
2022-10-17T02:09:54.752Z,5.50
2022-10-17T02:12:36.172Z,4.73
2022-10-17T02:15:25.354Z,4.80
2022-10-17T02:18:02.095Z,4.70
2022-10-17T02:20:33.140Z,5.90
2022-10-17T02:23:10.179Z,4.47
2022-10-17T02:25:43.560Z,4.43
2022-10-17T02:28:20.942Z,4.37
2022-10-17T02:30:55.240Z,4.67
2022-10-17T02:33:28.756Z,5.50
2022-10-17T02:36:01.406Z,5.07
2022-10-17T02:38:31.606Z,4.87
2022-10-17T02:41:00.123Z,6.20
2022-10-17T02:43:29.121Z,11.27
2022-10-17T02:45:58.107Z,4.17
2022-10-17T02:48:32.165Z,5.50
2022-10-17T02:51:05.941Z,6.07
2022-10-17T02:53:41.443Z,4.47
2022-10-17T02:56:15.650Z,5.13
2022-10-17T02:58:47.255Z,3.67
2022-10-17T03:01:15.304Z,5.17
2022-10-17T03:03:44.399Z,3.93
2022-10-17T03:06:12.116Z,4.77
2022-10-17T03:08:39.858Z,5.50
2022-10-17T03:11:07.895Z,4.97
2022-10-17T03:13:38.953Z,4.43
2022-10-17T03:16:07.859Z,3.57
2022-10-17T03:18:35.624Z,7.03
2022-10-17T03:21:04.751Z,3.93
2022-10-17T03:23:32.467Z,7.87
2022-10-17T03:26:03.775Z,4.77
2022-10-17T03:28:31.489Z,4.80
2022-10-17T03:30:59.200Z,4.23
2022-10-17T03:33:26.986Z,5.30
2022-10-17T03:35:54.673Z,6.37
2022-10-17T03:38:23.768Z,5.70
2022-10-17T03:40:56.200Z,5.37
2022-10-17T03:43:23.960Z,6.63
2022-10-17T03:45:51.709Z,3.83
2022-10-17T03:48:19.405Z,5.57
2022-10-17T03:50:47.114Z,4.43
2022-10-17T03:53:14.846Z,5.60
2022-10-17T03:55:43.911Z,4.13
2022-10-17T03:58:11.651Z,5.67
2022-10-17T04:00:39.418Z,4.57
2022-10-17T04:03:07.198Z,5.60
2022-10-17T04:05:34.933Z,3.90
2022-10-17T04:08:04.742Z,4.77
2022-10-17T04:10:32.769Z,3.97
2022-10-17T04:13:01.809Z,5.70
2022-10-17T04:15:29.688Z,4.60
2022-10-17T04:17:57.488Z,3.63
2022-10-17T04:20:25.213Z,4.27
2022-10-17T04:22:53.254Z,3.30
2022-10-17T04:25:20.922Z,4.43
2022-10-17T04:27:49.023Z,3.30
2022-10-17T04:30:18.685Z,3.77
2022-10-17T04:32:46.381Z,4.97
2022-10-17T04:35:14.080Z,4.67
2022-10-17T04:37:41.811Z,3.77
2022-10-17T04:40:10.873Z,4.50
2022-10-17T04:42:38.642Z,5.10
2022-10-17T04:45:07.487Z,5.67
2022-10-17T04:47:36.584Z,4.50
2022-10-17T04:50:05.372Z,4.20
2022-10-17T04:52:33.327Z,4.27
2022-10-17T04:55:01.026Z,4.60
2022-10-17T04:57:28.735Z,4.33
2022-10-17T04:59:56.618Z,5.90
2022-10-17T05:02:24.485Z,5.07
2022-10-17T05:04:53.643Z,5.97
2022-10-17T05:07:21.334Z,4.87
2022-10-17T05:09:49.038Z,3.10
2022-10-17T05:12:16.739Z,2.80
2022-10-17T05:14:44.431Z,4.50
2022-10-17T05:17:12.275Z,8.17
2022-10-17T05:19:39.990Z,4.83
2022-10-17T05:22:09.508Z,4.63
2022-10-17T05:24:37.193Z,5.93
2022-10-17T05:27:05.057Z,5.37
2022-10-17T05:29:32.801Z,5.53
2022-10-17T05:34:34.851Z,3.77
2022-10-17T05:37:02.540Z,5.90
2022-10-17T05:39:31.629Z,3.00
2022-10-17T05:41:59.360Z,2.93
2022-10-17T05:44:27.092Z,3.30
2022-10-17T05:46:54.790Z,6.80
2022-10-17T05:49:33.408Z,3.13
2022-10-17T05:52:10.319Z,5.13
2022-10-17T05:54:39.434Z,4.00
2022-10-17T05:57:07.150Z,3.63
2022-10-17T05:59:34.888Z,3.90
2022-10-17T06:02:02.702Z,5.57
2022-10-17T06:04:30.452Z,4.77
2022-10-17T06:06:58.222Z,4.87
2022-10-17T06:09:25.966Z,3.00
2022-10-17T06:11:55.062Z,5.90
2022-10-17T06:14:22.775Z,3.93
2022-10-17T06:16:50.583Z,4.63
2022-10-17T06:19:18.495Z,5.23
2022-10-17T06:21:46.347Z,3.60
2022-10-17T06:24:14.111Z,3.27
2022-10-17T06:26:41.969Z,5.17
2022-10-17T06:29:11.454Z,4.10
2022-10-17T06:31:39.837Z,6.57
2022-10-17T06:34:07.644Z,6.13
2022-10-17T06:36:35.354Z,4.23
2022-10-17T06:39:03.038Z,5.50
2022-10-17T06:41:30.803Z,4.60
2022-10-17T06:43:58.496Z,3.80
2022-10-17T06:46:29.713Z,4.47
2022-10-17T06:48:57.422Z,4.57
2022-10-17T06:51:25.158Z,4.77
2022-10-17T06:53:52.854Z,6.67
2022-10-17T06:56:20.525Z,3.60
2022-10-17T06:58:50.732Z,4.83
2022-10-17T07:01:18.916Z,4.20
2022-10-17T07:03:49.449Z,3.27
2022-10-17T07:06:17.974Z,4.40
2022-10-17T07:08:46.941Z,7.03
2022-10-17T07:11:16.831Z,4.43
2022-10-17T07:13:44.895Z,5.00
2022-10-17T07:16:13.512Z,5.00
2022-10-17T07:18:41.851Z,4.97
2022-10-17T07:21:11.001Z,3.00
2022-10-17T07:23:39.845Z,3.17
2022-10-17T07:26:09.398Z,5.20
2022-10-17T07:28:38.313Z,6.77
2022-10-17T07:31:07.276Z,5.27
2022-10-17T07:33:35.154Z,4.83
2022-10-17T07:36:03.373Z,4.70
2022-10-17T07:38:32.818Z,3.23
2022-10-17T07:41:02.901Z,3.43
2022-10-17T07:43:31.554Z,3.13
2022-10-17T07:45:59.661Z,3.27
2022-10-17T07:48:27.354Z,3.13
2022-10-17T07:50:55.071Z,3.43
2022-10-17T07:53:22.807Z,4.60
2022-10-17T07:55:52.145Z,3.47
2022-10-17T07:58:20.960Z,2.77
2022-10-17T08:00:51.285Z,4.60
2022-10-17T08:03:19.119Z,4.67
2022-10-17T08:05:46.879Z,5.50
2022-10-17T08:08:14.812Z,4.17
2022-10-17T08:10:42.581Z,3.10
2022-10-17T08:13:11.683Z,4.30
2022-10-17T08:15:39.980Z,4.30
2022-10-17T08:18:07.737Z,2.90
2022-10-17T08:20:35.811Z,3.97
2022-10-17T08:23:03.488Z,3.80
2022-10-17T08:25:31.352Z,4.20
2022-10-17T08:27:59.328Z,4.60
2022-10-17T08:30:30.825Z,6.07
2022-10-17T08:32:58.555Z,5.83
2022-10-17T08:35:26.820Z,6.33
2022-10-17T08:37:54.534Z,3.47
2022-10-17T08:40:25.835Z,5.33
2022-10-17T08:43:10.357Z,3.27
2022-10-17T08:45:45.504Z,6.30
2022-10-17T08:48:17.969Z,6.20
2022-10-17T08:50:49.489Z,6.67
2022-10-17T08:53:22.824Z,3.70
2022-10-17T08:55:52.830Z,4.43
2022-10-17T08:58:23.833Z,6.63
2022-10-17T09:01:00.779Z,6.03
2022-10-17T09:03:58.039Z,5.13
2022-10-17T09:06:30.128Z,3.70
2022-10-17T09:09:09.948Z,4.80
2022-10-17T09:11:57.689Z,9.43
2022-10-17T09:15:05.591Z,4.37
2022-10-17T09:17:44.988Z,3.37
2022-10-17T09:20:18.826Z,5.03
2022-10-17T09:22:51.133Z,3.13
2022-10-17T09:25:21.319Z,5.23
2022-10-17T09:27:52.452Z,3.83
2022-10-17T09:30:46.136Z,5.93
2022-10-17T09:33:28.770Z,5.30
2022-10-17T09:36:10.372Z,3.20
2022-10-17T09:38:41.331Z,3.27
2022-10-17T09:44:31.552Z,5.17
2022-10-17T09:47:23.872Z,3.60
2022-10-17T09:49:53.591Z,4.67
2022-10-17T09:52:26.910Z,3.87
2022-10-17T09:54:58.431Z,7.00
2022-10-17T09:57:26.463Z,3.83
2022-10-17T09:59:59.933Z,5.37
2022-10-17T10:02:29.964Z,4.23
2022-10-17T10:05:06.367Z,2.77
2022-10-17T10:07:37.684Z,2.77
2022-10-17T10:10:08.373Z,3.53
2022-10-17T10:12:38.344Z,3.33
2022-10-17T10:15:32.285Z,5.10
2022-10-17T10:17:59.994Z,3.77
2022-10-17T10:20:34.965Z,4.27
2022-10-17T10:23:14.321Z,5.67
2022-10-17T10:25:54.854Z,4.03
2022-10-17T10:28:27.429Z,3.17
2022-10-17T10:30:56.699Z,4.07
2022-10-17T10:33:28.769Z,3.80
2022-10-17T10:36:01.647Z,3.17
2022-10-17T10:38:30.404Z,3.57
2022-10-17T10:41:04.071Z,5.60
2022-10-17T10:43:36.455Z,3.40
2022-10-17T10:46:07.413Z,6.40
2022-10-17T10:48:37.221Z,5.23
2022-10-17T10:51:10.703Z,3.00
2022-10-17T10:53:45.257Z,3.23
2022-10-17T10:56:19.439Z,4.63
2022-10-17T10:58:55.767Z,4.47
2022-10-17T11:01:30.468Z,3.87
2022-10-17T11:04:14.747Z,5.10
2022-10-17T11:06:46.300Z,3.20
2022-10-17T11:09:24.547Z,4.43
2022-10-17T11:11:59.747Z,2.80
2022-10-17T11:14:39.385Z,4.83
2022-10-17T11:17:17.338Z,2.77
2022-10-17T11:19:49.505Z,5.60
2022-10-17T11:22:29.589Z,8.03
2022-10-17T11:25:01.974Z,4.23
2022-10-17T11:27:31.220Z,4.97
2022-10-17T11:29:59.650Z,8.00
2022-10-17T11:32:32.754Z,3.97
2022-10-17T11:35:06.724Z,3.77
2022-10-17T11:37:48.404Z,4.93
2022-10-17T11:40:24.260Z,3.43
2022-10-17T11:42:58.239Z,5.00
2022-10-17T11:45:29.123Z,3.67
2022-10-17T11:48:02.559Z,4.33
2022-10-17T11:53:25.778Z,5.67
2022-10-17T11:55:55.538Z,5.07
2022-10-17T11:58:34.065Z,3.33
2022-10-17T12:01:15.072Z,3.50
2022-10-17T12:04:06.405Z,4.10
2022-10-17T12:06:48.560Z,5.10
2022-10-17T12:09:28.366Z,3.13
2022-10-17T12:11:58.257Z,6.18
2022-10-17T12:14:38.562Z,4.18
2022-10-17T12:17:07.784Z,2.60
2022-10-17T12:19:36.690Z,4.23
2022-10-17T12:22:07.903Z,2.73
2022-10-17T12:24:41.862Z,3.97
2022-10-17T12:27:39.145Z,5.90
2022-10-17T12:30:17.032Z,6.43
2022-10-17T12:33:08.031Z,4.13
2022-10-17T12:35:38.051Z,3.22
2022-10-17T12:38:29.708Z,7.20
2022-10-17T12:41:04.122Z,7.20
2022-10-17T12:43:56.173Z,5.05
2022-10-17T12:46:57.465Z,7.85
2022-10-17T12:49:41.083Z,7.97
2022-10-17T12:52:44.606Z,7.70
2022-10-17T12:55:16.541Z,7.93
2022-10-17T12:57:52.403Z,4.95
2022-10-17T13:00:28.754Z,4.70
2022-10-17T13:02:58.364Z,4.32
2022-10-17T13:05:30.762Z,5.65
2022-10-17T13:08:01.795Z,6.38
2022-10-17T13:10:31.917Z,3.53
2022-10-17T13:13:07.323Z,4.30
2022-10-17T13:15:36.269Z,5.18
2022-10-17T13:18:04.369Z,4.90
2022-10-17T13:20:33.267Z,4.70
2022-10-17T13:23:01.106Z,4.38
2022-10-17T13:25:29.504Z,3.70
2022-10-17T13:28:14.349Z,4.13
2022-10-17T13:30:49.568Z,4.65
2022-10-17T13:33:30.090Z,5.95
2022-10-17T13:36:01.445Z,4.80
2022-10-17T13:38:34.174Z,5.27
2022-10-17T13:41:30.550Z,4.22
2022-10-17T13:43:54.745Z,3.70
2022-10-17T13:46:37.238Z,4.75
2022-10-17T13:49:13.758Z,4.75
2022-10-17T13:51:45.910Z,3.65
2022-10-17T13:54:29.673Z,5.30
2022-10-17T13:56:58.771Z,5.72
2022-10-17T13:59:33.545Z,3.05
2022-10-17T14:02:02.644Z,4.78
2022-10-17T14:04:44.707Z,7.28
2022-10-17T14:07:27.911Z,7.05
2022-10-17T14:09:57.185Z,8.43
2022-10-17T14:12:25.167Z,9.60
2022-10-17T14:15:10.213Z,5.60
2022-10-17T14:17:39.133Z,5.65
2022-10-17T14:23:21.546Z,6.50
2022-10-17T14:25:44.737Z,4.72
2022-10-17T14:28:16.893Z,2.95
2022-10-17T14:31:03.206Z,4.03
2022-10-17T14:33:33.357Z,4.03
2022-10-17T14:36:03.627Z,3.63
2022-10-17T14:38:31.849Z,4.32
2022-10-17T14:41:30.259Z,5.35
2022-10-17T14:43:55.536Z,4.95
2022-10-17T14:46:25.311Z,4.78
2022-10-17T14:48:58.348Z,6.97
2022-10-17T14:51:26.114Z,4.03
2022-10-17T14:54:20.587Z,8.10
2022-10-17T14:56:52.728Z,4.80
2022-10-17T14:59:42.004Z,5.55
2022-10-17T15:02:13.196Z,6.75
2022-10-17T15:04:41.038Z,4.70
2022-10-17T15:07:13.902Z,3.15
2022-10-17T15:09:41.995Z,7.50
2022-10-17T15:12:15.896Z,6.88
2022-10-17T15:14:44.324Z,4.38
2022-10-17T15:17:16.937Z,4.80
2022-10-17T15:19:44.695Z,3.42
2022-10-17T15:22:12.920Z,6.32
2022-10-17T15:24:40.791Z,6.80
2022-10-17T15:27:15.923Z,3.83
2022-10-17T15:29:43.732Z,5.13
2022-10-17T15:32:11.807Z,5.07
2022-10-17T15:34:41.068Z,8.98
2022-10-17T15:37:17.673Z,6.20
2022-10-17T15:39:48.016Z,4.60
2022-10-17T15:42:15.826Z,4.18
2022-10-17T15:44:44.570Z,4.50
2022-10-17T15:47:23.714Z,3.97
2022-10-17T15:49:52.990Z,4.53
2022-10-17T15:52:20.743Z,5.37
2022-10-17T15:54:48.586Z,6.07
2022-10-17T15:57:19.791Z,5.20
2022-10-17T15:59:48.829Z,7.07
2022-10-17T16:02:18.142Z,7.60
2022-10-17T16:04:46.232Z,5.20
2022-10-17T16:07:15.477Z,5.30
2022-10-17T16:09:43.894Z,4.93
2022-10-17T16:12:14.353Z,5.43
2022-10-17T16:14:42.257Z,7.10
2022-10-17T16:17:13.087Z,7.67
2022-10-17T16:19:40.941Z,4.90
2022-10-17T16:22:21.118Z,6.60
2022-10-17T16:24:48.943Z,4.97
2022-10-17T16:27:16.758Z,7.47
2022-10-17T16:29:44.543Z,4.90
2022-10-17T16:32:12.344Z,5.03
2022-10-17T16:34:40.100Z,5.03
2022-10-17T16:37:07.968Z,5.30
2022-10-17T16:39:37.310Z,5.17
2022-10-17T16:42:05.286Z,5.00
2022-10-17T16:44:33.055Z,4.40
2022-10-17T16:47:00.817Z,4.27
2022-10-17T16:49:28.643Z,5.47
2022-10-17T16:51:56.412Z,5.60
2022-10-17T16:54:24.149Z,7.60
2022-10-17T16:56:53.395Z,8.07
2022-10-17T16:59:21.212Z,6.03
2022-10-17T17:01:48.995Z,4.87
2022-10-17T17:04:16.869Z,4.83
2022-10-17T17:09:17.578Z,4.20
2022-10-17T17:11:45.475Z,4.07
2022-10-17T17:14:15.092Z,5.88
2022-10-17T17:16:43.487Z,6.77
2022-10-17T17:19:13.693Z,7.70
2022-10-17T17:21:43.140Z,7.33
2022-10-17T17:24:10.967Z,6.50
2022-10-17T17:26:39.047Z,4.63
2022-10-17T17:29:06.903Z,6.67
2022-10-17T17:31:38.933Z,5.37
2022-10-17T17:34:07.084Z,7.73
2022-10-17T17:36:36.514Z,4.23
2022-10-17T17:39:06.372Z,4.63
2022-10-17T17:41:34.333Z,6.60
2022-10-17T17:44:03.081Z,6.57
2022-10-17T17:46:31.143Z,8.80
2022-10-17T17:49:01.015Z,5.83
2022-10-17T17:51:29.648Z,6.67
2022-10-17T17:53:58.440Z,4.03
2022-10-17T17:56:27.626Z,6.37
2022-10-17T17:58:56.907Z,8.60
2022-10-17T18:01:27.572Z,4.77
2022-10-17T18:03:56.571Z,7.93
2022-10-17T18:06:26.784Z,5.47
2022-10-17T18:08:57.709Z,8.30
2022-10-17T18:11:25.949Z,6.33
2022-10-17T18:13:57.341Z,7.47
2022-10-17T18:16:25.453Z,5.10
2022-10-17T18:18:53.374Z,7.77
2022-10-17T18:21:21.416Z,6.40
2022-10-17T18:23:51.840Z,6.20
2022-10-17T18:26:19.785Z,10.43
2022-10-17T18:28:47.912Z,5.73
2022-10-17T18:31:24.041Z,7.67
2022-10-17T18:33:52.953Z,8.67
2022-10-17T18:36:21.394Z,11.63
2022-10-17T18:38:50.814Z,9.70
2022-10-17T18:41:20.447Z,9.83
2022-10-17T18:43:50.977Z,10.70
2022-10-17T18:46:20.244Z,9.00
2022-10-17T18:48:49.331Z,11.63
2022-10-17T18:51:19.734Z,9.67
2022-10-17T18:53:50.861Z,6.10
2022-10-17T18:56:19.763Z,6.03
2022-10-17T18:58:48.279Z,5.73
2022-10-17T19:01:17.987Z,6.70
2022-10-17T19:03:47.313Z,8.03
2022-10-17T19:06:18.444Z,7.23
2022-10-17T19:08:46.621Z,8.03
2022-10-17T19:11:18.477Z,7.70
2022-10-17T19:13:47.950Z,11.97
2022-10-17T19:16:18.001Z,5.27
2022-10-17T19:18:50.664Z,7.20
2022-10-17T19:21:21.826Z,5.53
2022-10-17T19:23:52.330Z,8.20
2022-10-17T19:26:22.361Z,6.63
2022-10-17T19:28:52.237Z,9.03
2022-10-17T19:31:25.560Z,7.43
2022-10-17T19:33:54.318Z,6.90
2022-10-17T19:36:26.284Z,9.03
2022-10-17T19:38:57.411Z,11.37
2022-10-17T19:41:26.770Z,6.60
2022-10-17T19:43:54.590Z,6.33
2022-10-17T19:46:24.773Z,9.80
2022-10-17T19:48:53.058Z,6.57
2022-10-17T19:51:24.323Z,7.37
2022-10-17T19:53:53.116Z,7.07
2022-10-17T19:56:21.252Z,10.27
2022-10-17T19:58:51.396Z,7.67
2022-10-17T20:01:21.840Z,7.30
2022-10-17T20:03:50.182Z,9.60
2022-10-17T20:06:18.379Z,8.27
2022-10-17T20:08:46.347Z,8.27
2022-10-17T20:11:16.789Z,10.73
2022-10-17T20:13:45.835Z,7.77
2022-10-17T20:16:18.363Z,8.17
2022-10-17T20:18:46.186Z,8.90
2022-10-17T20:21:15.753Z,7.97
2022-10-17T20:23:45.536Z,8.23
2022-10-17T20:26:26.429Z,8.60
2022-10-17T20:29:08.606Z,8.00
2022-10-17T20:31:38.204Z,8.77
2022-10-17T20:34:06.962Z,8.13
2022-10-17T20:36:37.041Z,9.83
2022-10-17T20:39:05.837Z,10.20
2022-10-17T20:41:33.746Z,8.17
2022-10-17T20:44:01.547Z,13.83
2022-10-17T20:46:38.538Z,9.47
2022-10-17T20:49:16.779Z,7.87
2022-10-17T20:51:44.998Z,7.77
2022-10-17T20:54:13.954Z,10.17
2022-10-17T20:56:42.075Z,11.27
2022-10-17T20:59:14.839Z,7.60
2022-10-17T21:01:43.103Z,8.60
2022-10-17T21:07:00.739Z,10.77
2022-10-17T21:09:28.586Z,8.60
2022-10-17T21:11:56.831Z,8.80
2022-10-17T21:14:26.010Z,8.47
2022-10-17T21:16:54.031Z,10.93
2022-10-17T21:19:22.710Z,9.27
2022-10-17T21:21:50.873Z,9.27
2022-10-17T21:24:20.860Z,7.67
2022-10-17T21:26:55.352Z,7.60
2022-10-17T21:29:24.331Z,7.87
2022-10-17T21:31:52.393Z,7.70
2022-10-17T21:34:25.062Z,10.83
2022-10-17T21:36:53.518Z,9.20
2022-10-17T21:39:24.689Z,9.23
2022-10-17T21:41:53.570Z,8.17
2022-10-17T21:44:23.446Z,8.40
2022-10-17T21:46:51.726Z,8.37
2022-10-17T21:49:21.271Z,10.00
2022-10-17T21:51:49.686Z,8.83
2022-10-17T21:54:18.833Z,8.90
2022-10-17T21:56:48.038Z,11.00
2022-10-17T21:59:16.177Z,10.27
2022-10-17T22:01:45.487Z,9.37
2022-10-17T22:04:15.040Z,9.53
2022-10-17T22:06:44.545Z,9.00
2022-10-17T22:09:14.720Z,9.83
2022-10-17T22:11:44.816Z,8.87
2022-10-17T22:14:16.253Z,10.57
2022-10-17T22:16:45.184Z,11.37
2022-10-17T22:19:15.167Z,9.63
2022-10-17T22:21:43.022Z,8.73
2022-10-17T22:24:13.481Z,9.73
2022-10-17T22:26:41.459Z,10.30
2022-10-17T22:29:09.984Z,13.30
2022-10-17T22:31:39.265Z,8.73
2022-10-17T22:34:08.225Z,9.47
2022-10-17T22:36:36.764Z,11.43
2022-10-17T22:39:05.287Z,11.57
2022-10-17T22:41:33.089Z,10.87
2022-10-17T22:44:01.304Z,10.90
2022-10-17T22:46:29.362Z,11.27
2022-10-17T22:48:58.560Z,11.07
2022-10-17T22:51:26.367Z,11.30
2022-10-17T22:53:54.135Z,10.67
2022-10-17T22:56:22.854Z,13.47
2022-10-17T22:58:50.869Z,11.70
2022-10-17T23:01:21.686Z,13.07
2022-10-17T23:03:49.658Z,11.27
2022-10-17T23:06:19.322Z,10.73
2022-10-17T23:08:47.277Z,12.40
2022-10-17T23:11:15.069Z,12.43
2022-10-17T23:13:43.010Z,11.70
2022-10-17T23:16:10.824Z,12.07
2022-10-17T23:18:39.402Z,13.23
2022-10-17T23:21:07.647Z,11.60
2022-10-17T23:23:37.249Z,10.03
2022-10-17T23:26:06.763Z,11.20
2022-10-17T23:28:35.738Z,11.23
2022-10-17T23:31:11.504Z,11.07
2022-10-17T23:33:41.199Z,11.00
2022-10-17T23:36:10.542Z,11.20
2022-10-17T23:38:40.117Z,11.07
2022-10-17T23:41:08.398Z,14.27
2022-10-17T23:43:36.666Z,16.10
2022-10-17T23:46:05.950Z,13.27
2022-10-17T23:48:34.096Z,13.63
2022-10-17T23:51:01.956Z,11.80
2022-10-17T23:53:29.769Z,15.13
2022-10-17T23:55:58.937Z,11.83
2022-10-17T23:58:26.735Z,13.20
